Startpagina
METAR-TAF:

METAR-TAF

Vliegvelden :

Leeuwarden, Nederland

Vliegbasis Leeuwarden

breedte: 53-13N, lengte: 005-46E, hoogte: 1 m

Actueel weer

Dit bericht is 14 minuten geleden gemaakt, om 06:29 UTC
Wind 20 kt uit het noordnoordwesten met uitschieters tot 36 kt, variërend tussen het westnoordwesten en het noorden
Temperatuur 6°C
Vochtigheid 81%
Druk 1012 hPa
Zicht: 3600 m
Weinig wolken op 1500 ft, Cumulonimbus.
Verspreide wolken op 2700 ft
Gebroken wolken op 3700 ft
zware regen

METAR: EHLW 190629Z AUTO 33020G36KT 300V010 3600 R23/P3000N +RA FEW015CB SCT027 BKN037 06/03 Q1012 YLO

Tijdstip: 07:43 (06:43 UTC)


TAF: ontbreekt

Waarnemingen en weersverwachtingen van meer dan 4000 vliegvelden (METAR en TAF).

De beschikbare stations zijn de gele en rode punten op de kaart.

Ga met uw muis naar het station om de naam te zien.

Klik dan om waarnemingen en weersverwachtingen te zien.

kaart wijzigen: klik op de groene knoppen met een zwart kruis om in te zoomen, op de groene knop met een streepje om uit te zoomen of op de groene pijlen voor aangrenzende kaarten.


METAR-TAF: